sensor_id;sensor_type;location;lat;lon;timestamp;P1;durP1;ratioP1;P2;durP2;ratioP2
23670;SDS011;12012;51.998;7.614;2022-10-19T00:01:54;9.27;;;3.40;;
23670;SDS011;12012;51.998;7.614;2022-10-19T00:04:20;7.72;;;3.67;;
23670;SDS011;12012;51.998;7.614;2022-10-19T00:06:46;10.50;;;4.13;;
23670;SDS011;12012;51.998;7.614;2022-10-19T00:09:12;5.88;;;3.53;;
23670;SDS011;12012;51.998;7.614;2022-10-19T00:11:43;9.90;;;3.83;;
23670;SDS011;12012;51.998;7.614;2022-10-19T00:14:11;7.35;;;3.50;;
23670;SDS011;12012;51.998;7.614;2022-10-19T00:16:42;9.55;;;4.13;;
23670;SDS011;12012;51.998;7.614;2022-10-19T00:19:11;9.07;;;3.80;;
23670;SDS011;12012;51.998;7.614;2022-10-19T00:21:38;11.65;;;3.92;;
23670;SDS011;12012;51.998;7.614;2022-10-19T00:24:05;9.50;;;4.45;;
23670;SDS011;12012;51.998;7.614;2022-10-19T00:26:31;11.52;;;4.40;;
23670;SDS011;12012;51.998;7.614;2022-10-19T00:28:58;9.95;;;4.75;;
23670;SDS011;12012;51.998;7.614;2022-10-19T00:31:24;9.18;;;4.95;;
23670;SDS011;12012;51.998;7.614;2022-10-19T00:33:50;11.85;;;4.82;;
23670;SDS011;12012;51.998;7.614;2022-10-19T00:36:18;15.20;;;5.15;;
23670;SDS011;12012;51.998;7.614;2022-10-19T00:38:50;8.35;;;4.53;;
23670;SDS011;12012;51.998;7.614;2022-10-19T00:41:17;10.48;;;4.38;;
23670;SDS011;12012;51.998;7.614;2022-10-19T00:44:05;14.30;;;4.57;;
23670;SDS011;12012;51.998;7.614;2022-10-19T00:46:49;11.23;;;4.80;;
23670;SDS011;12012;51.998;7.614;2022-10-19T00:49:23;11.20;;;4.15;;
23670;SDS011;12012;51.998;7.614;2022-10-19T00:51:53;12.23;;;4.78;;
23670;SDS011;12012;51.998;7.614;2022-10-19T00:54:20;12.45;;;4.05;;
23670;SDS011;12012;51.998;7.614;2022-10-19T00:56:48;12.00;;;4.50;;
23670;SDS011;12012;51.998;7.614;2022-10-19T00:59:18;7.20;;;4.40;;
23670;SDS011;12012;51.998;7.614;2022-10-19T01:01:45;7.90;;;4.15;;
23670;SDS011;12012;51.998;7.614;2022-10-19T01:04:12;12.45;;;4.85;;
23670;SDS011;12012;51.998;7.614;2022-10-19T01:06:39;7.50;;;4.05;;
23670;SDS011;12012;51.998;7.614;2022-10-19T01:09:05;7.82;;;4.10;;
23670;SDS011;12012;51.998;7.614;2022-10-19T01:17:09;10.40;;;4.90;;
23670;SDS011;12012;51.998;7.614;2022-10-19T01:25:33;9.68;;;5.13;;
23670;SDS011;12012;51.998;7.614;2022-10-19T01:30:41;8.30;;;3.95;;
23670;SDS011;12012;51.998;7.614;2022-10-19T01:38:49;8.73;;;3.35;;
23670;SDS011;12012;51.998;7.614;2022-10-19T01:41:20;6.93;;;4.15;;
23670;SDS011;12012;51.998;7.614;2022-10-19T01:43:58;8.07;;;3.78;;
23670;SDS011;12012;51.998;7.614;2022-10-19T01:46:33;10.52;;;4.85;;
23670;SDS011;12012;51.998;7.614;2022-10-19T01:49:04;9.30;;;4.10;;
23670;SDS011;12012;51.998;7.614;2022-10-19T01:51:34;8.30;;;4.80;;
23670;SDS011;12012;51.998;7.614;2022-10-19T01:54:06;11.55;;;5.50;;
23670;SDS011;12012;51.998;7.614;2022-10-19T01:56:36;10.68;;;5.45;;
23670;SDS011;12012;51.998;7.614;2022-10-19T01:59:04;8.05;;;4.70;;
23670;SDS011;12012;51.998;7.614;2022-10-19T02:01:32;9.75;;;4.25;;
23670;SDS011;12012;51.998;7.614;2022-10-19T02:04:01;10.98;;;4.40;;
23670;SDS011;12012;51.998;7.614;2022-10-19T02:06:27;10.43;;;4.90;;
23670;SDS011;12012;51.998;7.614;2022-10-19T02:08:53;7.55;;;4.18;;
23670;SDS011;12012;51.998;7.614;2022-10-19T02:11:20;10.80;;;4.28;;
23670;SDS011;12012;51.998;7.614;2022-10-19T02:13:48;7.25;;;4.30;;
23670;SDS011;12012;51.998;7.614;2022-10-19T02:16:19;6.40;;;4.13;;
23670;SDS011;12012;51.998;7.614;2022-10-19T02:18:49;6.55;;;3.83;;
23670;SDS011;12012;51.998;7.614;2022-10-19T02:21:17;7.18;;;3.78;;
23670;SDS011;12012;51.998;7.614;2022-10-19T02:23:43;11.30;;;4.25;;
23670;SDS011;12012;51.998;7.614;2022-10-19T02:26:08;14.90;;;6.82;;
23670;SDS011;12012;51.998;7.614;2022-10-19T02:28:34;7.72;;;4.15;;
23670;SDS011;12012;51.998;7.614;2022-10-19T02:31:00;11.82;;;4.40;;
23670;SDS011;12012;51.998;7.614;2022-10-19T02:33:26;7.30;;;4.10;;
23670;SDS011;12012;51.998;7.614;2022-10-19T02:35:53;14.93;;;4.93;;
23670;SDS011;12012;51.998;7.614;2022-10-19T02:38:20;9.50;;;4.78;;
23670;SDS011;12012;51.998;7.614;2022-10-19T02:40:52;10.15;;;5.47;;
23670;SDS011;12012;51.998;7.614;2022-10-19T02:43:36;13.57;;;5.72;;
23670;SDS011;12012;51.998;7.614;2022-10-19T02:46:09;7.78;;;5.25;;
23670;SDS011;12012;51.998;7.614;2022-10-19T02:49:01;7.80;;;4.13;;
23670;SDS011;12012;51.998;7.614;2022-10-19T02:51:31;8.48;;;4.32;;
23670;SDS011;12012;51.998;7.614;2022-10-19T02:53:59;8.85;;;4.25;;
23670;SDS011;12012;51.998;7.614;2022-10-19T02:56:24;8.45;;;4.43;;
23670;SDS011;12012;51.998;7.614;2022-10-19T02:58:50;11.95;;;4.82;;
23670;SDS011;12012;51.998;7.614;2022-10-19T03:01:16;8.15;;;3.97;;
23670;SDS011;12012;51.998;7.614;2022-10-19T03:03:42;8.68;;;4.30;;
23670;SDS011;12012;51.998;7.614;2022-10-19T03:06:08;6.07;;;4.13;;
23670;SDS011;12012;51.998;7.614;2022-10-19T03:08:33;7.55;;;4.53;;
23670;SDS011;12012;51.998;7.614;2022-10-19T03:10:59;10.82;;;4.85;;
23670;SDS011;12012;51.998;7.614;2022-10-19T03:13:24;8.45;;;3.95;;
23670;SDS011;12012;51.998;7.614;2022-10-19T03:15:50;6.88;;;3.83;;
23670;SDS011;12012;51.998;7.614;2022-10-19T03:18:16;7.72;;;4.15;;
23670;SDS011;12012;51.998;7.614;2022-10-19T03:20:42;6.80;;;4.63;;
23670;SDS011;12012;51.998;7.614;2022-10-19T03:23:07;11.77;;;4.90;;
23670;SDS011;12012;51.998;7.614;2022-10-19T03:25:33;7.45;;;3.72;;
23670;SDS011;12012;51.998;7.614;2022-10-19T03:27:58;7.07;;;3.55;;
23670;SDS011;12012;51.998;7.614;2022-10-19T03:30:24;7.68;;;3.90;;
23670;SDS011;12012;51.998;7.614;2022-10-19T03:32:50;8.30;;;3.78;;
23670;SDS011;12012;51.998;7.614;2022-10-19T03:35:15;9.50;;;4.53;;
23670;SDS011;12012;51.998;7.614;2022-10-19T03:37:41;10.00;;;4.38;;
23670;SDS011;12012;51.998;7.614;2022-10-19T03:40:07;5.57;;;3.50;;
23670;SDS011;12012;51.998;7.614;2022-10-19T03:42:33;8.15;;;3.90;;
23670;SDS011;12012;51.998;7.614;2022-10-19T03:44:58;11.07;;;4.18;;
23670;SDS011;12012;51.998;7.614;2022-10-19T03:47:24;7.20;;;4.57;;
23670;SDS011;12012;51.998;7.614;2022-10-19T03:49:49;7.60;;;4.32;;
23670;SDS011;12012;51.998;7.614;2022-10-19T03:52:18;6.13;;;4.28;;
23670;SDS011;12012;51.998;7.614;2022-10-19T03:54:44;8.48;;;4.32;;
23670;SDS011;12012;51.998;7.614;2022-10-19T03:57:13;11.77;;;5.22;;
23670;SDS011;12012;51.998;7.614;2022-10-19T03:59:39;8.80;;;5.18;;
23670;SDS011;12012;51.998;7.614;2022-10-19T04:02:04;8.88;;;5.63;;
23670;SDS011;12012;51.998;7.614;2022-10-19T04:04:30;12.32;;;5.93;;
23670;SDS011;12012;51.998;7.614;2022-10-19T04:06:55;9.38;;;5.00;;
23670;SDS011;12012;51.998;7.614;2022-10-19T04:09:21;13.95;;;6.28;;
23670;SDS011;12012;51.998;7.614;2022-10-19T04:11:47;15.15;;;6.60;;
23670;SDS011;12012;51.998;7.614;2022-10-19T04:14:15;14.57;;;6.30;;
23670;SDS011;12012;51.998;7.614;2022-10-19T04:16:41;9.68;;;4.90;;
23670;SDS011;12012;51.998;7.614;2022-10-19T04:19:07;9.40;;;4.72;;
23670;SDS011;12012;51.998;7.614;2022-10-19T04:21:36;11.82;;;4.65;;
23670;SDS011;12012;51.998;7.614;2022-10-19T04:24:08;9.55;;;5.95;;
23670;SDS011;12012;51.998;7.614;2022-10-19T04:26:42;7.15;;;4.95;;
23670;SDS011;12012;51.998;7.614;2022-10-19T04:29:10;12.55;;;5.82;;
23670;SDS011;12012;51.998;7.614;2022-10-19T04:31:36;8.35;;;5.13;;
23670;SDS011;12012;51.998;7.614;2022-10-19T04:34:02;8.85;;;5.00;;
23670;SDS011;12012;51.998;7.614;2022-10-19T04:36:28;9.60;;;5.28;;
23670;SDS011;12012;51.998;7.614;2022-10-19T04:38:53;13.05;;;5.82;;
23670;SDS011;12012;51.998;7.614;2022-10-19T04:41:19;9.18;;;4.50;;
23670;SDS011;12012;51.998;7.614;2022-10-19T04:43:46;9.73;;;4.85;;
23670;SDS011;12012;51.998;7.614;2022-10-19T04:46:14;11.27;;;5.95;;
23670;SDS011;12012;51.998;7.614;2022-10-19T04:48:44;12.57;;;6.10;;
23670;SDS011;12012;51.998;7.614;2022-10-19T04:51:11;9.00;;;5.00;;
23670;SDS011;12012;51.998;7.614;2022-10-19T04:53:37;9.95;;;6.78;;
23670;SDS011;12012;51.998;7.614;2022-10-19T04:56:04;9.38;;;5.43;;
23670;SDS011;12012;51.998;7.614;2022-10-19T04:58:37;9.75;;;5.53;;
23670;SDS011;12012;51.998;7.614;2022-10-19T05:01:09;9.27;;;5.45;;
23670;SDS011;12012;51.998;7.614;2022-10-19T05:03:41;12.40;;;6.15;;
23670;SDS011;12012;51.998;7.614;2022-10-19T05:06:07;6.78;;;4.88;;
23670;SDS011;12012;51.998;7.614;2022-10-19T05:08:34;12.50;;;6.00;;
23670;SDS011;12012;51.998;7.614;2022-10-19T05:11:07;7.95;;;5.68;;
23670;SDS011;12012;51.998;7.614;2022-10-19T05:13:35;11.40;;;5.72;;
23670;SDS011;12012;51.998;7.614;2022-10-19T05:16:01;9.93;;;5.57;;
23670;SDS011;12012;51.998;7.614;2022-10-19T05:18:28;10.50;;;5.45;;
23670;SDS011;12012;51.998;7.614;2022-10-19T05:21:27;12.38;;;7.55;;
23670;SDS011;12012;51.998;7.614;2022-10-19T05:26:15;11.70;;;8.02;;
23670;SDS011;12012;51.998;7.614;2022-10-19T05:28:42;15.40;;;8.43;;
23670;SDS011;12012;51.998;7.614;2022-10-19T05:31:13;9.68;;;6.80;;
23670;SDS011;12012;51.998;7.614;2022-10-19T05:33:41;11.50;;;7.57;;
23670;SDS011;12012;51.998;7.614;2022-10-19T05:38:38;17.25;;;9.90;;
23670;SDS011;12012;51.998;7.614;2022-10-19T05:41:04;11.15;;;8.30;;
23670;SDS011;12012;51.998;7.614;2022-10-19T05:43:29;9.98;;;7.55;;
23670;SDS011;12012;51.998;7.614;2022-10-19T05:45:55;15.75;;;8.93;;
23670;SDS011;12012;51.998;7.614;2022-10-19T05:48:20;12.18;;;8.32;;
23670;SDS011;12012;51.998;7.614;2022-10-19T05:50:52;10.90;;;6.60;;
23670;SDS011;12012;51.998;7.614;2022-10-19T05:53:18;17.40;;;10.90;;
23670;SDS011;12012;51.998;7.614;2022-10-19T05:55:44;15.90;;;9.60;;
23670;SDS011;12012;51.998;7.614;2022-10-19T05:58:10;17.38;;;10.88;;
23670;SDS011;12012;51.998;7.614;2022-10-19T06:00:36;19.30;;;12.38;;
23670;SDS011;12012;51.998;7.614;2022-10-19T06:03:01;17.83;;;9.57;;
23670;SDS011;12012;51.998;7.614;2022-10-19T06:05:27;14.35;;;9.52;;
23670;SDS011;12012;51.998;7.614;2022-10-19T06:07:52;18.52;;;11.05;;
23670;SDS011;12012;51.998;7.614;2022-10-19T06:10:18;14.77;;;9.55;;
23670;SDS011;12012;51.998;7.614;2022-10-19T06:12:45;15.80;;;9.32;;
23670;SDS011;12012;51.998;7.614;2022-10-19T06:15:11;12.98;;;9.57;;
23670;SDS011;12012;51.998;7.614;2022-10-19T06:17:37;11.30;;;7.22;;
23670;SDS011;12012;51.998;7.614;2022-10-19T06:20:02;14.48;;;10.32;;
23670;SDS011;12012;51.998;7.614;2022-10-19T06:22:28;11.95;;;8.65;;
23670;SDS011;12012;51.998;7.614;2022-10-19T06:24:54;16.13;;;9.60;;
23670;SDS011;12012;51.998;7.614;2022-10-19T06:27:20;9.05;;;7.00;;
23670;SDS011;12012;51.998;7.614;2022-10-19T06:29:46;10.93;;;7.82;;
23670;SDS011;12012;51.998;7.614;2022-10-19T06:32:12;13.15;;;9.23;;
23670;SDS011;12012;51.998;7.614;2022-10-19T06:34:37;10.13;;;7.22;;
23670;SDS011;12012;51.998;7.614;2022-10-19T06:37:03;8.57;;;7.68;;
23670;SDS011;12012;51.998;7.614;2022-10-19T06:39:28;8.23;;;6.75;;
23670;SDS011;12012;51.998;7.614;2022-10-19T06:41:54;8.65;;;7.18;;
23670;SDS011;12012;51.998;7.614;2022-10-19T06:44:19;9.68;;;7.45;;
23670;SDS011;12012;51.998;7.614;2022-10-19T06:46:45;7.13;;;6.43;;
23670;SDS011;12012;51.998;7.614;2022-10-19T06:49:11;10.18;;;6.20;;
23670;SDS011;12012;51.998;7.614;2022-10-19T06:51:37;10.15;;;7.43;;
23670;SDS011;12012;51.998;7.614;2022-10-19T06:54:04;8.15;;;6.75;;
23670;SDS011;12012;51.998;7.614;2022-10-19T06:56:30;7.95;;;6.78;;
23670;SDS011;12012;51.998;7.614;2022-10-19T06:58:56;7.57;;;6.78;;
23670;SDS011;12012;51.998;7.614;2022-10-19T07:01:22;8.68;;;7.80;;
23670;SDS011;12012;51.998;7.614;2022-10-19T07:03:49;6.78;;;6.15;;
23670;SDS011;12012;51.998;7.614;2022-10-19T07:06:16;11.52;;;8.18;;
23670;SDS011;12012;51.998;7.614;2022-10-19T07:08:41;9.02;;;6.28;;
23670;SDS011;12012;51.998;7.614;2022-10-19T07:11:13;11.63;;;7.15;;
23670;SDS011;12012;51.998;7.614;2022-10-19T07:13:41;12.55;;;7.22;;
23670;SDS011;12012;51.998;7.614;2022-10-19T07:16:10;9.18;;;6.90;;
23670;SDS011;12012;51.998;7.614;2022-10-19T07:18:38;14.20;;;8.82;;
23670;SDS011;12012;51.998;7.614;2022-10-19T07:21:06;5.47;;;4.97;;
23670;SDS011;12012;51.998;7.614;2022-10-19T07:23:33;14.32;;;7.05;;
23670;SDS011;12012;51.998;7.614;2022-10-19T07:26:07;12.82;;;8.05;;
23670;SDS011;12012;51.998;7.614;2022-10-19T07:28:47;7.72;;;6.32;;
23670;SDS011;12012;51.998;7.614;2022-10-19T07:31:14;9.38;;;7.55;;
23670;SDS011;12012;51.998;7.614;2022-10-19T07:33:44;9.07;;;8.07;;
23670;SDS011;12012;51.998;7.614;2022-10-19T07:36:10;7.30;;;6.55;;
23670;SDS011;12012;51.998;7.614;2022-10-19T07:38:37;6.20;;;5.22;;
23670;SDS011;12012;51.998;7.614;2022-10-19T07:41:04;13.70;;;7.28;;
23670;SDS011;12012;51.998;7.614;2022-10-19T07:43:32;8.15;;;7.35;;
23670;SDS011;12012;51.998;7.614;2022-10-19T07:46:01;7.63;;;6.53;;
23670;SDS011;12012;51.998;7.614;2022-10-19T07:48:32;8.38;;;7.47;;
23670;SDS011;12012;51.998;7.614;2022-10-19T07:51:03;11.07;;;7.75;;
23670;SDS011;12012;51.998;7.614;2022-10-19T07:53:30;7.20;;;4.95;;
23670;SDS011;12012;51.998;7.614;2022-10-19T07:56:01;9.40;;;6.00;;
23670;SDS011;12012;51.998;7.614;2022-10-19T07:58:30;18.75;;;10.40;;
23670;SDS011;12012;51.998;7.614;2022-10-19T08:01:03;29.23;;;13.68;;
23670;SDS011;12012;51.998;7.614;2022-10-19T08:03:31;19.77;;;8.82;;
23670;SDS011;12012;51.998;7.614;2022-10-19T08:06:00;20.17;;;9.82;;
23670;SDS011;12012;51.998;7.614;2022-10-19T08:08:27;13.25;;;7.07;;
23670;SDS011;12012;51.998;7.614;2022-10-19T08:10:53;12.13;;;7.18;;
23670;SDS011;12012;51.998;7.614;2022-10-19T08:13:19;13.48;;;6.55;;
23670;SDS011;12012;51.998;7.614;2022-10-19T08:15:45;11.23;;;6.10;;
23670;SDS011;12012;51.998;7.614;2022-10-19T08:18:10;17.40;;;6.53;;
23670;SDS011;12012;51.998;7.614;2022-10-19T08:20:36;8.25;;;4.88;;
23670;SDS011;12012;51.998;7.614;2022-10-19T08:23:04;9.90;;;5.97;;
23670;SDS011;12012;51.998;7.614;2022-10-19T08:25:30;9.43;;;5.35;;
23670;SDS011;12012;51.998;7.614;2022-10-19T08:27:55;8.10;;;4.43;;
23670;SDS011;12012;51.998;7.614;2022-10-19T08:30:21;11.48;;;5.15;;
23670;SDS011;12012;51.998;7.614;2022-10-19T08:32:47;7.22;;;4.70;;
23670;SDS011;12012;51.998;7.614;2022-10-19T08:35:12;6.60;;;4.07;;
23670;SDS011;12012;51.998;7.614;2022-10-19T08:37:38;7.88;;;3.85;;
23670;SDS011;12012;51.998;7.614;2022-10-19T08:40:04;7.53;;;3.50;;
23670;SDS011;12012;51.998;7.614;2022-10-19T08:42:31;10.15;;;3.53;;
23670;SDS011;12012;51.998;7.614;2022-10-19T08:45:36;7.18;;;3.15;;
23670;SDS011;12012;51.998;7.614;2022-10-19T08:48:14;24.98;;;7.28;;
23670;SDS011;12012;51.998;7.614;2022-10-19T08:50:46;9.63;;;3.33;;
23670;SDS011;12012;51.998;7.614;2022-10-19T08:53:14;5.45;;;2.90;;
23670;SDS011;12012;51.998;7.614;2022-10-19T08:55:48;5.97;;;2.72;;
23670;SDS011;12012;51.998;7.614;2022-10-19T09:06:58;5.18;;;2.30;;
23670;SDS011;12012;51.998;7.614;2022-10-19T09:09:33;5.43;;;1.90;;
23670;SDS011;12012;51.998;7.614;2022-10-19T09:12:05;9.13;;;2.40;;
23670;SDS011;12012;51.998;7.614;2022-10-19T09:14:34;5.78;;;2.17;;
23670;SDS011;12012;51.998;7.614;2022-10-19T09:17:10;3.88;;;2.40;;
23670;SDS011;12012;51.998;7.614;2022-10-19T09:19:38;6.20;;;3.13;;
23670;SDS011;12012;51.998;7.614;2022-10-19T09:22:07;5.95;;;2.20;;
23670;SDS011;12012;51.998;7.614;2022-10-19T09:27:19;6.45;;;2.45;;
23670;SDS011;12012;51.998;7.614;2022-10-19T09:32:18;5.55;;;2.22;;
23670;SDS011;12012;51.998;7.614;2022-10-19T09:34:57;3.88;;;1.77;;
23670;SDS011;12012;51.998;7.614;2022-10-19T09:37:28;5.35;;;1.95;;
23670;SDS011;12012;51.998;7.614;2022-10-19T09:39:55;6.95;;;1.98;;
23670;SDS011;12012;51.998;7.614;2022-10-19T09:44:57;6.10;;;1.55;;
23670;SDS011;12012;51.998;7.614;2022-10-19T09:47:28;6.85;;;1.95;;
23670;SDS011;12012;51.998;7.614;2022-10-19T09:50:08;5.35;;;1.95;;
23670;SDS011;12012;51.998;7.614;2022-10-19T09:52:55;5.15;;;1.25;;
23670;SDS011;12012;51.998;7.614;2022-10-19T09:55:25;5.60;;;1.40;;
23670;SDS011;12012;51.998;7.614;2022-10-19T09:58:14;3.30;;;1.25;;
23670;SDS011;12012;51.998;7.614;2022-10-19T10:00:45;6.47;;;1.30;;
23670;SDS011;12012;51.998;7.614;2022-10-19T10:03:20;3.95;;;1.20;;
23670;SDS011;12012;51.998;7.614;2022-10-19T10:05:46;5.40;;;1.48;;
23670;SDS011;12012;51.998;7.614;2022-10-19T10:08:13;7.80;;;1.30;;
23670;SDS011;12012;51.998;7.614;2022-10-19T10:10:43;6.40;;;1.50;;
23670;SDS011;12012;51.998;7.614;2022-10-19T10:13:15;4.60;;;1.40;;
23670;SDS011;12012;51.998;7.614;2022-10-19T10:15:43;3.80;;;1.38;;
23670;SDS011;12012;51.998;7.614;2022-10-19T10:18:13;5.15;;;1.75;;
23670;SDS011;12012;51.998;7.614;2022-10-19T10:20:57;6.00;;;1.42;;
23670;SDS011;12012;51.998;7.614;2022-10-19T10:26:29;6.88;;;1.52;;
23670;SDS011;12012;51.998;7.614;2022-10-19T10:28:55;6.50;;;1.40;;
23670;SDS011;12012;51.998;7.614;2022-10-19T10:31:22;3.22;;;1.42;;
23670;SDS011;12012;51.998;7.614;2022-10-19T10:33:59;3.92;;;1.85;;
23670;SDS011;12012;51.998;7.614;2022-10-19T10:36:26;5.22;;;2.00;;
23670;SDS011;12012;51.998;7.614;2022-10-19T10:39:00;6.85;;;2.00;;
23670;SDS011;12012;51.998;7.614;2022-10-19T10:41:30;5.53;;;2.13;;
23670;SDS011;12012;51.998;7.614;2022-10-19T10:44:13;5.60;;;2.17;;
23670;SDS011;12012;51.998;7.614;2022-10-19T10:49:27;5.70;;;1.55;;
23670;SDS011;12012;51.998;7.614;2022-10-19T10:51:59;4.40;;;1.60;;
23670;SDS011;12012;51.998;7.614;2022-10-19T10:54:29;3.88;;;1.75;;
23670;SDS011;12012;51.998;7.614;2022-10-19T10:57:02;5.75;;;1.55;;
23670;SDS011;12012;51.998;7.614;2022-10-19T10:59:52;3.47;;;1.50;;
23670;SDS011;12012;51.998;7.614;2022-10-19T11:05:00;4.00;;;1.23;;
23670;SDS011;12012;51.998;7.614;2022-10-19T11:07:40;4.25;;;1.30;;
23670;SDS011;12012;51.998;7.614;2022-10-19T11:10:15;5.50;;;1.10;;
23670;SDS011;12012;51.998;7.614;2022-10-19T11:12:48;4.72;;;1.27;;
23670;SDS011;12012;51.998;7.614;2022-10-19T11:20:51;4.38;;;1.10;;
23670;SDS011;12012;51.998;7.614;2022-10-19T11:23:19;4.68;;;1.48;;
23670;SDS011;12012;51.998;7.614;2022-10-19T11:26:14;4.57;;;1.30;;
23670;SDS011;12012;51.998;7.614;2022-10-19T11:31:41;4.63;;;1.40;;
23670;SDS011;12012;51.998;7.614;2022-10-19T11:37:14;3.00;;;1.10;;
23670;SDS011;12012;51.998;7.614;2022-10-19T11:42:19;5.40;;;1.55;;
23670;SDS011;12012;51.998;7.614;2022-10-19T11:45:10;4.30;;;1.60;;
23670;SDS011;12012;51.998;7.614;2022-10-19T11:48:02;4.28;;;1.40;;
23670;SDS011;12012;51.998;7.614;2022-10-19T11:56:21;3.70;;;1.42;;
23670;SDS011;12012;51.998;7.614;2022-10-19T12:05:03;3.88;;;1.50;;
23670;SDS011;12012;51.998;7.614;2022-10-19T12:13:39;6.30;;;1.52;;
23670;SDS011;12012;51.998;7.614;2022-10-19T12:16:10;4.30;;;1.70;;
23670;SDS011;12012;51.998;7.614;2022-10-19T12:18:39;5.57;;;1.40;;
23670;SDS011;12012;51.998;7.614;2022-10-19T12:21:10;5.45;;;1.60;;
23670;SDS011;12012;51.998;7.614;2022-10-19T12:23:48;3.05;;;1.10;;
23670;SDS011;12012;51.998;7.614;2022-10-19T12:26:17;5.75;;;1.45;;
23670;SDS011;12012;51.998;7.614;2022-10-19T12:28:46;4.25;;;1.30;;
23670;SDS011;12012;51.998;7.614;2022-10-19T12:31:14;3.38;;;1.30;;
23670;SDS011;12012;51.998;7.614;2022-10-19T12:33:43;4.07;;;1.23;;
23670;SDS011;12012;51.998;7.614;2022-10-19T12:41:59;3.47;;;1.13;;
23670;SDS011;12012;51.998;7.614;2022-10-19T12:47:19;4.20;;;1.42;;
23670;SDS011;12012;51.998;7.614;2022-10-19T12:57:36;3.45;;;1.35;;
23670;SDS011;12012;51.998;7.614;2022-10-19T13:00:05;6.47;;;1.40;;
23670;SDS011;12012;51.998;7.614;2022-10-19T13:02:42;6.65;;;1.40;;
23670;SDS011;12012;51.998;7.614;2022-10-19T13:05:17;6.15;;;1.17;;
23670;SDS011;12012;51.998;7.614;2022-10-19T13:07:46;4.35;;;1.40;;
23670;SDS011;12012;51.998;7.614;2022-10-19T13:10:17;3.25;;;1.20;;
23670;SDS011;12012;51.998;7.614;2022-10-19T13:12:46;4.10;;;1.48;;
23670;SDS011;12012;51.998;7.614;2022-10-19T13:18:00;5.25;;;1.02;;
23670;SDS011;12012;51.998;7.614;2022-10-19T13:41:18;4.85;;;1.20;;
23670;SDS011;12012;51.998;7.614;2022-10-19T13:44:03;2.40;;;0.80;;
23670;SDS011;12012;51.998;7.614;2022-10-19T14:04:57;4.88;;;1.25;;
23670;SDS011;12012;51.998;7.614;2022-10-19T14:10:32;4.47;;;1.40;;
23670;SDS011;12012;51.998;7.614;2022-10-19T14:12:58;2.78;;;1.10;;
23670;SDS011;12012;51.998;7.614;2022-10-19T14:15:26;4.75;;;1.27;;
23670;SDS011;12012;51.998;7.614;2022-10-19T14:17:54;3.83;;;1.00;;
23670;SDS011;12012;51.998;7.614;2022-10-19T14:20:26;5.15;;;1.10;;
23670;SDS011;12012;51.998;7.614;2022-10-19T14:22:54;3.08;;;1.13;;
23670;SDS011;12012;51.998;7.614;2022-10-19T14:25:20;3.53;;;1.00;;
23670;SDS011;12012;51.998;7.614;2022-10-19T14:27:58;4.13;;;1.20;;
23670;SDS011;12012;51.998;7.614;2022-10-19T14:30:29;4.88;;;1.20;;
23670;SDS011;12012;51.998;7.614;2022-10-19T14:33:00;4.20;;;0.90;;
23670;SDS011;12012;51.998;7.614;2022-10-19T14:35:36;4.93;;;1.30;;
23670;SDS011;12012;51.998;7.614;2022-10-19T14:38:07;3.35;;;1.00;;
23670;SDS011;12012;51.998;7.614;2022-10-19T14:40:39;4.10;;;1.13;;
23670;SDS011;12012;51.998;7.614;2022-10-19T14:43:25;5.57;;;1.42;;
23670;SDS011;12012;51.998;7.614;2022-10-19T14:48:38;3.20;;;1.00;;
23670;SDS011;12012;51.998;7.614;2022-10-19T14:54:22;2.53;;;1.10;;
23670;SDS011;12012;51.998;7.614;2022-10-19T14:59:49;3.60;;;1.20;;
23670;SDS011;12012;51.998;7.614;2022-10-19T15:02:19;5.47;;;1.27;;
23670;SDS011;12012;51.998;7.614;2022-10-19T15:04:48;6.28;;;1.65;;
23670;SDS011;12012;51.998;7.614;2022-10-19T15:09:51;10.48;;;1.75;;
23670;SDS011;12012;51.998;7.614;2022-10-19T15:12:21;3.85;;;1.20;;
23670;SDS011;12012;51.998;7.614;2022-10-19T15:14:52;2.90;;;1.10;;
23670;SDS011;12012;51.998;7.614;2022-10-19T15:17:28;4.13;;;1.60;;
23670;SDS011;12012;51.998;7.614;2022-10-19T15:19:56;9.88;;;1.90;;
23670;SDS011;12012;51.998;7.614;2022-10-19T15:27:31;2.78;;;1.30;;
23670;SDS011;12012;51.998;7.614;2022-10-19T15:32:30;4.07;;;1.48;;
23670;SDS011;12012;51.998;7.614;2022-10-19T15:35:08;3.63;;;1.42;;
23670;SDS011;12012;51.998;7.614;2022-10-19T15:37:35;5.88;;;1.42;;
23670;SDS011;12012;51.998;7.614;2022-10-19T15:40:12;3.85;;;1.42;;
23670;SDS011;12012;51.998;7.614;2022-10-19T15:42:48;3.88;;;1.38;;
23670;SDS011;12012;51.998;7.614;2022-10-19T15:45:30;5.18;;;1.42;;
23670;SDS011;12012;51.998;7.614;2022-10-19T15:50:46;4.78;;;2.10;;
23670;SDS011;12012;51.998;7.614;2022-10-19T15:53:13;6.85;;;2.00;;
23670;SDS011;12012;51.998;7.614;2022-10-19T15:55:39;4.85;;;2.25;;
23670;SDS011;12012;51.998;7.614;2022-10-19T15:58:05;5.95;;;2.65;;
23670;SDS011;12012;51.998;7.614;2022-10-19T16:00:32;4.97;;;2.60;;
23670;SDS011;12012;51.998;7.614;2022-10-19T16:02:58;5.60;;;2.15;;
23670;SDS011;12012;51.998;7.614;2022-10-19T16:05:24;4.30;;;2.35;;
23670;SDS011;12012;51.998;7.614;2022-10-19T16:07:49;3.90;;;1.95;;
23670;SDS011;12012;51.998;7.614;2022-10-19T16:10:18;6.07;;;2.60;;
23670;SDS011;12012;51.998;7.614;2022-10-19T16:12:46;6.67;;;2.07;;
23670;SDS011;12012;51.998;7.614;2022-10-19T16:15:15;3.88;;;2.50;;
23670;SDS011;12012;51.998;7.614;2022-10-19T16:17:47;6.07;;;2.10;;
23670;SDS011;12012;51.998;7.614;2022-10-19T16:20:17;6.40;;;2.30;;
23670;SDS011;12012;51.998;7.614;2022-10-19T16:22:43;4.10;;;2.05;;
23670;SDS011;12012;51.998;7.614;2022-10-19T16:25:10;3.38;;;1.73;;
23670;SDS011;12012;51.998;7.614;2022-10-19T16:27:36;6.70;;;2.33;;
23670;SDS011;12012;51.998;7.614;2022-10-19T16:30:02;2.92;;;2.05;;
23670;SDS011;12012;51.998;7.614;2022-10-19T16:32:28;8.05;;;2.08;;
23670;SDS011;12012;51.998;7.614;2022-10-19T16:34:54;5.13;;;2.00;;
23670;SDS011;12012;51.998;7.614;2022-10-19T16:37:19;4.40;;;2.50;;
23670;SDS011;12012;51.998;7.614;2022-10-19T16:39:45;4.07;;;1.85;;
23670;SDS011;12012;51.998;7.614;2022-10-19T16:42:10;5.05;;;2.22;;
23670;SDS011;12012;51.998;7.614;2022-10-19T16:44:36;3.72;;;2.10;;
23670;SDS011;12012;51.998;7.614;2022-10-19T16:47:01;3.90;;;2.08;;
23670;SDS011;12012;51.998;7.614;2022-10-19T16:49:27;3.10;;;2.20;;
23670;SDS011;12012;51.998;7.614;2022-10-19T16:51:53;5.90;;;2.55;;
23670;SDS011;12012;51.998;7.614;2022-10-19T16:54:19;7.78;;;3.03;;
23670;SDS011;12012;51.998;7.614;2022-10-19T16:56:45;7.95;;;2.55;;
23670;SDS011;12012;51.998;7.614;2022-10-19T16:59:15;7.00;;;2.15;;
23670;SDS011;12012;51.998;7.614;2022-10-19T17:01:42;8.45;;;2.50;;
23670;SDS011;12012;51.998;7.614;2022-10-19T17:04:12;5.13;;;1.90;;
23670;SDS011;12012;51.998;7.614;2022-10-19T17:06:39;3.97;;;2.00;;
23670;SDS011;12012;51.998;7.614;2022-10-19T17:09:05;5.45;;;2.20;;
23670;SDS011;12012;51.998;7.614;2022-10-19T17:11:32;4.35;;;2.00;;
23670;SDS011;12012;51.998;7.614;2022-10-19T17:14:00;4.15;;;1.95;;
23670;SDS011;12012;51.998;7.614;2022-10-19T17:16:30;4.45;;;1.92;;
23670;SDS011;12012;51.998;7.614;2022-10-19T17:18:57;2.85;;;2.25;;
23670;SDS011;12012;51.998;7.614;2022-10-19T17:21:24;4.50;;;2.22;;
23670;SDS011;12012;51.998;7.614;2022-10-19T17:23:56;7.10;;;2.47;;
23670;SDS011;12012;51.998;7.614;2022-10-19T17:26:26;6.03;;;2.63;;
23670;SDS011;12012;51.998;7.614;2022-10-19T17:28:57;9.13;;;3.58;;
23670;SDS011;12012;51.998;7.614;2022-10-19T17:31:23;7.15;;;2.83;;
23670;SDS011;12012;51.998;7.614;2022-10-19T17:33:49;6.25;;;2.78;;
23670;SDS011;12012;51.998;7.614;2022-10-19T17:36:16;5.63;;;2.50;;
23670;SDS011;12012;51.998;7.614;2022-10-19T17:38:46;5.45;;;3.10;;
23670;SDS011;12012;51.998;7.614;2022-10-19T17:41:14;4.18;;;2.60;;